sensor_id;sensor_type;location;lat;lon;timestamp;P1;durP1;ratioP1;P2;durP2;ratioP2
1082;SDS011;530;51.448;7.238;2022-12-01T00:10:17;35.57;;;20.10;;
1082;SDS011;530;51.448;7.238;2022-12-01T00:17:46;33.40;;;19.80;;
1082;SDS011;530;51.448;7.238;2022-12-01T00:21:23;42.73;;;20.30;;
1082;SDS011;530;51.448;7.238;2022-12-01T01:14:23;49.20;;;23.93;;
1082;SDS011;530;51.448;7.238;2022-12-01T01:48:10;35.87;;;19.77;;
1082;SDS011;530;51.448;7.238;2022-12-01T02:47:46;37.83;;;21.27;;
1082;SDS011;530;51.448;7.238;2022-12-01T03:24:54;34.07;;;19.40;;
1082;SDS011;530;51.448;7.238;2022-12-01T03:35:27;38.10;;;20.30;;
1082;SDS011;530;51.448;7.238;2022-12-01T03:58:41;38.37;;;19.30;;
1082;SDS011;530;51.448;7.238;2022-12-01T04:06:08;39.47;;;21.10;;
1082;SDS011;530;51.448;7.238;2022-12-01T04:09:45;41.60;;;22.30;;
1082;SDS011;530;51.448;7.238;2022-12-01T05:53:26;30.67;;;17.60;;
1082;SDS011;530;51.448;7.238;2022-12-01T08:55:46;24.13;;;14.80;;
1082;SDS011;530;51.448;7.238;2022-12-01T19:07:09;32.50;;;19.30;;
1082;SDS011;530;51.448;7.238;2022-12-01T19:09:34;33.47;;;18.80;;
1082;SDS011;530;51.448;7.238;2022-12-01T19:12:00;32.13;;;17.00;;
1082;SDS011;530;51.448;7.238;2022-12-01T19:14:26;27.87;;;17.03;;
1082;SDS011;530;51.448;7.238;2022-12-01T19:16:53;24.90;;;15.37;;
1082;SDS011;530;51.448;7.238;2022-12-01T19:19:19;26.37;;;14.53;;
1082;SDS011;530;51.448;7.238;2022-12-01T19:21:45;28.73;;;15.37;;
1082;SDS011;530;51.448;7.238;2022-12-01T19:24:11;27.83;;;16.00;;
1082;SDS011;530;51.448;7.238;2022-12-01T19:26:36;28.53;;;17.13;;
1082;SDS011;530;51.448;7.238;2022-12-01T19:29:02;24.20;;;15.33;;
1082;SDS011;530;51.448;7.238;2022-12-01T19:31:28;27.33;;;16.10;;
1082;SDS011;530;51.448;7.238;2022-12-01T19:33:54;24.40;;;15.33;;
1082;SDS011;530;51.448;7.238;2022-12-01T19:36:23;25.43;;;16.33;;
1082;SDS011;530;51.448;7.238;2022-12-01T19:38:51;25.73;;;15.13;;
1082;SDS011;530;51.448;7.238;2022-12-01T19:41:17;26.53;;;15.90;;
1082;SDS011;530;51.448;7.238;2022-12-01T19:43:45;29.37;;;17.00;;
1082;SDS011;530;51.448;7.238;2022-12-01T19:46:11;30.87;;;18.40;;
1082;SDS011;530;51.448;7.238;2022-12-01T19:48:39;28.60;;;15.40;;
1082;SDS011;530;51.448;7.238;2022-12-01T19:51:06;22.73;;;14.10;;
1082;SDS011;530;51.448;7.238;2022-12-01T19:53:39;25.83;;;15.20;;
1082;SDS011;530;51.448;7.238;2022-12-01T19:56:04;27.90;;;15.47;;
1082;SDS011;530;51.448;7.238;2022-12-01T19:58:31;25.83;;;14.43;;
1082;SDS011;530;51.448;7.238;2022-12-01T20:01:04;25.10;;;16.70;;
1082;SDS011;530;51.448;7.238;2022-12-01T20:03:31;24.40;;;15.43;;
1082;SDS011;530;51.448;7.238;2022-12-01T20:06:00;32.90;;;16.13;;
1082;SDS011;530;51.448;7.238;2022-12-01T20:08:27;29.40;;;16.67;;
1082;SDS011;530;51.448;7.238;2022-12-01T20:10:53;31.37;;;17.70;;
1082;SDS011;530;51.448;7.238;2022-12-01T20:13:19;29.97;;;16.60;;
1082;SDS011;530;51.448;7.238;2022-12-01T20:15:44;27.40;;;16.10;;
1082;SDS011;530;51.448;7.238;2022-12-01T20:18:10;27.17;;;16.70;;
1082;SDS011;530;51.448;7.238;2022-12-01T20:20:38;33.50;;;18.90;;
1082;SDS011;530;51.448;7.238;2022-12-01T20:23:04;27.60;;;16.17;;
1082;SDS011;530;51.448;7.238;2022-12-01T20:25:30;28.47;;;15.87;;
1082;SDS011;530;51.448;7.238;2022-12-01T20:27:56;27.40;;;16.10;;
1082;SDS011;530;51.448;7.238;2022-12-01T20:30:22;30.10;;;18.60;;
1082;SDS011;530;51.448;7.238;2022-12-01T20:32:47;32.20;;;17.60;;
1082;SDS011;530;51.448;7.238;2022-12-01T20:35:13;31.00;;;18.50;;
1082;SDS011;530;51.448;7.238;2022-12-01T20:37:39;35.63;;;18.90;;
1082;SDS011;530;51.448;7.238;2022-12-01T20:40:05;28.37;;;16.33;;
1082;SDS011;530;51.448;7.238;2022-12-01T20:42:31;35.23;;;17.63;;
1082;SDS011;530;51.448;7.238;2022-12-01T20:44:57;32.37;;;19.43;;
1082;SDS011;530;51.448;7.238;2022-12-01T20:47:23;34.47;;;17.93;;
1082;SDS011;530;51.448;7.238;2022-12-01T20:49:48;33.20;;;18.30;;
1082;SDS011;530;51.448;7.238;2022-12-01T20:52:14;33.70;;;18.50;;
1082;SDS011;530;51.448;7.238;2022-12-01T20:54:40;29.73;;;18.73;;
1082;SDS011;530;51.448;7.238;2022-12-01T20:57:06;32.37;;;19.63;;
1082;SDS011;530;51.448;7.238;2022-12-01T20:59:33;29.83;;;17.87;;
1082;SDS011;530;51.448;7.238;2022-12-01T21:01:59;34.73;;;21.10;;
1082;SDS011;530;51.448;7.238;2022-12-01T21:04:25;32.40;;;19.43;;
1082;SDS011;530;51.448;7.238;2022-12-01T21:06:53;33.77;;;19.80;;
1082;SDS011;530;51.448;7.238;2022-12-01T21:09:19;37.97;;;20.70;;
1082;SDS011;530;51.448;7.238;2022-12-01T21:11:46;38.63;;;20.90;;
1082;SDS011;530;51.448;7.238;2022-12-01T21:14:40;33.90;;;20.37;;
1082;SDS011;530;51.448;7.238;2022-12-01T21:20:27;39.53;;;21.67;;
1082;SDS011;530;51.448;7.238;2022-12-01T21:23:08;37.13;;;22.10;;
1082;SDS011;530;51.448;7.238;2022-12-01T21:25:36;35.77;;;20.43;;
1082;SDS011;530;51.448;7.238;2022-12-01T21:28:12;38.20;;;22.63;;
1082;SDS011;530;51.448;7.238;2022-12-01T21:30:40;38.50;;;22.50;;
1082;SDS011;530;51.448;7.238;2022-12-01T21:33:13;38.47;;;24.13;;
1082;SDS011;530;51.448;7.238;2022-12-01T21:35:43;35.67;;;21.77;;
1082;SDS011;530;51.448;7.238;2022-12-01T21:38:10;37.73;;;22.20;;
1082;SDS011;530;51.448;7.238;2022-12-01T21:40:36;36.07;;;22.03;;
1082;SDS011;530;51.448;7.238;2022-12-01T21:43:18;39.87;;;23.60;;
1082;SDS011;530;51.448;7.238;2022-12-01T21:45:52;38.10;;;22.47;;
1082;SDS011;530;51.448;7.238;2022-12-01T21:48:22;39.77;;;23.77;;
1082;SDS011;530;51.448;7.238;2022-12-01T21:50:49;38.03;;;22.03;;
1082;SDS011;530;51.448;7.238;2022-12-01T21:53:26;37.00;;;21.30;;
1082;SDS011;530;51.448;7.238;2022-12-01T21:55:57;40.20;;;22.63;;
1082;SDS011;530;51.448;7.238;2022-12-01T21:58:23;40.80;;;23.63;;
1082;SDS011;530;51.448;7.238;2022-12-01T22:00:51;39.70;;;22.70;;
1082;SDS011;530;51.448;7.238;2022-12-01T22:05:51;42.53;;;23.27;;
1082;SDS011;530;51.448;7.238;2022-12-01T22:08:39;45.87;;;24.07;;
1082;SDS011;530;51.448;7.238;2022-12-01T22:11:10;43.00;;;23.20;;
1082;SDS011;530;51.448;7.238;2022-12-01T22:13:46;37.00;;;21.00;;
1082;SDS011;530;51.448;7.238;2022-12-01T22:16:35;38.13;;;21.43;;
1082;SDS011;530;51.448;7.238;2022-12-01T22:21:48;38.60;;;22.80;;
1082;SDS011;530;51.448;7.238;2022-12-01T22:26:47;40.10;;;22.03;;
1082;SDS011;530;51.448;7.238;2022-12-01T22:31:46;40.77;;;22.07;;
1082;SDS011;530;51.448;7.238;2022-12-01T22:34:12;37.43;;;21.40;;
1082;SDS011;530;51.448;7.238;2022-12-01T22:36:40;40.57;;;21.33;;
1082;SDS011;530;51.448;7.238;2022-12-01T22:39:39;35.23;;;21.67;;
1082;SDS011;530;51.448;7.238;2022-12-01T22:42:04;43.97;;;22.67;;
1082;SDS011;530;51.448;7.238;2022-12-01T22:44:33;37.27;;;20.77;;
1082;SDS011;530;51.448;7.238;2022-12-01T22:47:02;42.13;;;23.20;;
1082;SDS011;530;51.448;7.238;2022-12-01T22:49:28;39.13;;;23.13;;
1082;SDS011;530;51.448;7.238;2022-12-01T22:54:32;40.40;;;21.03;;
1082;SDS011;530;51.448;7.238;2022-12-01T22:57:13;43.40;;;23.47;;
1082;SDS011;530;51.448;7.238;2022-12-01T22:59:45;40.90;;;23.40;;
1082;SDS011;530;51.448;7.238;2022-12-01T23:04:41;45.07;;;23.20;;
1082;SDS011;530;51.448;7.238;2022-12-01T23:07:28;44.00;;;20.83;;
1082;SDS011;530;51.448;7.238;2022-12-01T23:10:20;44.13;;;24.43;;
1082;SDS011;530;51.448;7.238;2022-12-01T23:12:47;44.70;;;23.00;;
1082;SDS011;530;51.448;7.238;2022-12-01T23:17:51;46.00;;;22.77;;
1082;SDS011;530;51.448;7.238;2022-12-01T23:20:33;40.70;;;23.57;;
1082;SDS011;530;51.448;7.238;2022-12-01T23:23:11;43.40;;;22.20;;
1082;SDS011;530;51.448;7.238;2022-12-01T23:25:39;45.17;;;24.20;;
1082;SDS011;530;51.448;7.238;2022-12-01T23:28:08;37.27;;;21.90;;
1082;SDS011;530;51.448;7.238;2022-12-01T23:30:36;37.43;;;20.80;;
1082;SDS011;530;51.448;7.238;2022-12-01T23:35:37;31.00;;;19.23;;
1082;SDS011;530;51.448;7.238;2022-12-01T23:38:12;29.97;;;17.53;;
1082;SDS011;530;51.448;7.238;2022-12-01T23:40:40;28.97;;;15.80;;
1082;SDS011;530;51.448;7.238;2022-12-01T23:45:50;30.87;;;17.67;;
1082;SDS011;530;51.448;7.238;2022-12-01T23:48:47;30.40;;;18.40;;
1082;SDS011;530;51.448;7.238;2022-12-01T23:56:49;29.20;;;18.57;;
1082;SDS011;530;51.448;7.238;2022-12-01T23:59:16;31.00;;;17.57;;
